Time;durP1;ratioP1;P1;durP2;ratioP2;P2;SDS_P1;SDS_P2;PMS_P1;PMS_P2;Temp;Humidity;BMP_temperature;BMP_pressure;BME280_temperature;BME280_humidity;BME280_pressure;Samples;Min_cycle;Max_cycle;Signal;HPM_P1;HPM_P2
2023/10/25 00:00:41;;;;;;;4.55;4.35;;;;;;;8.29;100.00;99467.69;5953157;29;20057;-93
2023/10/25 00:03:43;;;;;;;4.95;4.70;;;;;;;8.26;100.00;99460.25;5957968;29;20349;-93
2023/10/25 00:06:46;;;;;;;4.82;4.47;;;;;;;8.23;100.00;99466.47;5952991;29;20035;-93
2023/10/25 00:09:48;;;;;;;5.80;5.28;;;;;;;8.22;100.00;99475.13;5949660;29;20505;-93
2023/10/25 00:12:50;;;;;;;5.47;5.28;;;;;;;8.24;100.00;99475.81;5955778;29;20043;-93
2023/10/25 00:15:52;;;;;;;4.47;4.28;;;;;;;8.20;100.00;99475.28;5954957;29;20135;-92
2023/10/25 00:18:54;;;;;;;4.47;4.28;;;;;;;8.17;100.00;99472.16;5967600;29;20391;-93
2023/10/25 00:21:56;;;;;;;5.13;4.72;;;;;;;8.14;100.00;99473.22;5949865;29;20500;-93
2023/10/25 00:24:58;;;;;;;3.97;3.88;;;;;;;8.13;100.00;99463.06;5955205;29;20835;-94
2023/10/25 00:28:00;;;;;;;5.18;4.97;;;;;;;8.10;100.00;99460.72;5955560;29;20038;-93
2023/10/25 00:31:02;;;;;;;4.60;4.38;;;;;;;8.13;100.00;99466.44;5954811;29;20554;-93
2023/10/25 00:34:05;;;;;;;4.30;4.18;;;;;;;8.13;100.00;99468.22;5955677;29;20050;-93
2023/10/25 00:37:06;;;;;;;4.70;4.50;;;;;;;8.12;100.00;99464.00;5953944;29;20137;-93
2023/10/25 00:40:09;;;;;;;4.78;4.57;;;;;;;8.12;100.00;99458.84;5947059;29;20075;-94
2023/10/25 00:43:16;;;;;;;6.25;5.72;;;;;;;8.12;100.00;99467.41;5947421;29;20585;-94
2023/10/25 00:46:32;;;;;;;5.47;5.18;;;;;;;8.09;100.00;99462.50;5952631;29;20034;-93
2023/10/25 00:49:37;;;;;;;4.82;4.55;;;;;;;8.09;100.00;99469.41;5962360;29;20042;-94
2023/10/25 00:52:40;;;;;;;5.22;4.93;;;;;;;8.14;100.00;99470.66;5949740;29;20134;-92
2023/10/25 00:55:43;;;;;;;5.18;4.93;;;;;;;8.19;100.00;99475.41;5946057;29;20052;-93
2023/10/25 00:58:48;;;;;;;3.60;3.50;;;;;;;8.23;100.00;99468.25;5955883;29;20066;-93
2023/10/25 01:01:50;;;;;;;4.45;4.25;;;;;;;8.22;100.00;99471.75;5967967;29;20054;-92
2023/10/25 01:04:54;;;;;;;4.63;4.32;;;;;;;8.18;100.00;99469.44;5952236;29;20061;-92
2023/10/25 01:07:56;;;;;;;4.07;3.97;;;;;;;8.20;100.00;99470.13;5951330;29;20084;-93
2023/10/25 01:10:58;;;;;;;3.72;3.63;;;;;;;8.19;100.00;99476.22;5953735;29;20050;-92
2023/10/25 01:14:01;;;;;;;4.15;3.90;;;;;;;8.13;100.00;99466.44;5951231;29;20074;-93
2023/10/25 01:17:03;;;;;;;4.90;4.70;;;;;;;8.12;100.00;99469.16;5954721;29;20035;-93
2023/10/25 01:20:06;;;;;;;4.35;4.25;;;;;;;8.08;100.00;99466.03;5954859;29;20050;-93
2023/10/25 01:23:08;;;;;;;5.88;5.57;;;;;;;8.03;100.00;99464.81;5952026;29;20050;-93
2023/10/25 01:26:11;;;;;;;4.40;4.28;;;;;;;8.03;100.00;99464.81;5948428;29;20779;-92
2023/10/25 01:29:13;;;;;;;4.85;4.65;;;;;;;7.95;100.00;99453.38;5971429;29;20119;-93
2023/10/25 01:32:15;;;;;;;4.88;4.65;;;;;;;7.93;100.00;99455.25;5954996;29;20058;-93
2023/10/25 01:35:17;;;;;;;4.65;4.50;;;;;;;7.90;100.00;99465.84;5956688;29;20061;-92
2023/10/25 01:38:19;;;;;;;5.05;4.82;;;;;;;7.87;100.00;99462.69;5957724;29;20070;-93
2023/10/25 01:41:21;;;;;;;5.68;5.38;;;;;;;7.84;100.00;99458.63;5956394;29;20054;-92
2023/10/25 01:44:23;;;;;;;4.55;4.20;;;;;;;7.84;100.00;99458.63;5928981;29;20075;-93
2023/10/25 01:47:25;;;;;;;5.43;5.13;;;;;;;7.84;100.00;99461.19;5950892;29;20047;-94
2023/10/25 01:50:27;;;;;;;6.82;6.22;;;;;;;7.82;100.00;99463.06;5948037;29;20042;-93
2023/10/25 01:53:29;;;;;;;3.78;3.67;;;;;;;7.81;100.00;99455.50;5949267;29;20656;-93
2023/10/25 01:56:31;;;;;;;4.60;4.25;;;;;;;7.79;100.00;99465.13;5953600;29;20516;-92
2023/10/25 01:59:34;;;;;;;10.63;4.55;;;;;;;7.80;100.00;99462.41;5957812;29;20126;-93
2023/10/25 02:02:36;;;;;;;5.30;4.97;;;;;;;7.80;100.00;99461.56;5968271;29;20051;-93
2023/10/25 02:05:38;;;;;;;3.40;3.30;;;;;;;7.80;100.00;99459.00;5972201;29;20050;-93
2023/10/25 02:08:41;;;;;;;4.10;3.92;;;;;;;7.75;100.00;99457.66;5966030;29;20051;-93
2023/10/25 02:11:43;;;;;;;4.93;4.55;;;;;;;7.83;100.00;99463.91;5956661;29;20114;-93
2023/10/25 02:14:44;;;;;;;4.95;4.45;;;;;;;7.81;100.00;99460.66;5957137;29;20051;-93
2023/10/25 02:17:46;;;;;;;4.07;3.97;;;;;;;7.79;100.00;99457.38;5954627;29;20039;-93
2023/10/25 02:20:49;;;;;;;3.65;3.55;;;;;;;7.80;100.00;99459.84;5952275;29;20093;-93
2023/10/25 02:23:53;;;;;;;4.05;3.85;;;;;;;7.82;100.00;99457.91;5952328;29;20697;-93
2023/10/25 02:26:55;;;;;;;4.60;4.40;;;;;;;7.84;100.00;99456.03;5955269;29;20103;-92
2023/10/25 02:29:57;;;;;;;3.42;3.33;;;;;;;7.83;100.00;99459.56;5969002;29;20051;-93
2023/10/25 02:32:59;;;;;;;3.80;3.67;;;;;;;7.90;100.00;99459.84;5973160;29;20175;-93
2023/10/25 02:36:01;;;;;;;3.72;3.63;;;;;;;7.90;100.00;99458.13;5951309;29;20102;-93
2023/10/25 02:39:03;;;;;;;3.38;3.28;;;;;;;7.88;100.00;99460.00;5962179;29;20051;-93
2023/10/25 02:42:05;;;;;;;4.80;4.50;;;;;;;7.86;100.00;99455.91;5958423;29;20074;-93
2023/10/25 02:45:07;;;;;;;4.03;3.92;;;;;;;7.83;100.00;99457.00;5972657;29;20191;-93
2023/10/25 02:48:16;;;;;;;3.63;3.53;;;;;;;7.85;100.00;99452.53;5954874;29;20426;-96
2023/10/25 02:51:19;;;;;;;4.13;3.97;;;;;;;7.84;100.00;99450.88;5969587;29;20047;-94
2023/10/25 02:54:21;;;;;;;3.90;3.80;;;;;;;7.86;100.00;99451.56;5956379;29;20054;-95
2023/10/25 02:57:23;;;;;;;4.43;4.13;;;;;;;7.88;100.00;99449.69;5959191;29;20046;-94
2023/10/25 03:00:26;;;;;;;4.78;4.53;;;;;;;7.89;100.00;99442.78;5966180;29;20139;-94
2023/10/25 03:03:30;;;;;;;3.95;3.85;;;;;;;7.91;100.00;99440.88;5957819;29;20617;-94
2023/10/25 03:06:32;;;;;;;4.30;4.10;;;;;;;7.92;100.00;99440.75;5955853;29;20517;-94
2023/10/25 03:09:34;;;;;;;4.38;4.13;;;;;;;7.90;100.00;99434.09;5955463;29;20039;-94
2023/10/25 03:12:36;;;;;;;4.30;4.10;;;;;;;7.90;100.00;99434.91;5972068;29;20042;-94
2023/10/25 03:15:39;;;;;;;3.50;3.40;;;;;;;7.89;100.00;99433.28;5972459;29;20662;-94
2023/10/25 03:18:41;;;;;;;3.53;3.42;;;;;;;7.87;100.00;99434.34;5958092;29;20468;-93
2023/10/25 03:21:43;;;;;;;3.75;3.65;;;;;;;7.85;100.00;99424.19;5970334;29;20188;-94
2023/10/25 03:24:44;;;;;;;4.57;4.38;;;;;;;7.85;100.00;99426.78;5953468;29;20114;-94
2023/10/25 03:27:47;;;;;;;4.70;4.47;;;;;;;7.83;100.00;99426.09;5960888;29;20146;-94
2023/10/25 03:30:49;;;;;;;5.15;4.72;;;;;;;7.85;100.00;99426.78;5964485;29;20140;-94
2023/10/25 03:33:53;;;;;;;3.55;3.45;;;;;;;7.82;100.00;99424.44;5972654;29;20627;-94
2023/10/25 03:36:55;;;;;;;4.88;4.68;;;;;;;7.83;100.00;99420.94;5957671;29;20043;-94
2023/10/25 03:39:57;;;;;;;3.75;3.65;;;;;;;7.82;100.00;99414.13;5962735;29;20450;-95
2023/10/25 03:42:59;;;;;;;4.47;4.30;;;;;;;7.86;100.00;99404.41;5956545;29;20046;-93
2023/10/25 03:46:06;;;;;;;3.35;3.25;;;;;;;7.86;100.00;99410.34;5972154;29;20046;-94
2023/10/25 03:49:09;;;;;;;3.88;3.78;;;;;;;7.81;100.00;99399.63;5942052;29;20055;-94
2023/10/25 03:52:12;;;;;;;5.05;4.75;;;;;;;7.79;100.00;99404.09;5957803;29;20042;-94
2023/10/25 03:55:14;;;;;;;3.72;3.63;;;;;;;7.74;100.00;99398.53;5958009;29;20129;-93
2023/10/25 03:58:17;;;;;;;4.05;3.95;;;;;;;7.77;100.00;99391.34;5971007;29;20066;-94
2023/10/25 04:01:19;;;;;;;4.32;4.13;;;;;;;7.75;100.00;99393.25;5957851;29;20657;-94
2023/10/25 04:04:21;;;;;;;3.60;3.50;;;;;;;7.71;100.00;99385.91;5962636;29;20141;-94
2023/10/25 04:07:23;;;;;;;3.90;3.80;;;;;;;7.67;100.00;99384.53;5968697;29;20143;-94
2023/10/25 04:10:28;;;;;;;4.63;4.43;;;;;;;7.65;100.00;99384.69;5976158;29;20055;-94
2023/10/25 04:13:34;;;;;;;4.57;4.38;;;;;;;7.61;100.00;99379.91;5956914;29;20047;-94
2023/10/25 04:16:37;;;;;;;4.00;3.90;;;;;;;7.61;100.00;99379.91;5956587;29;20426;-94
2023/10/25 04:19:40;;;;;;;7.80;4.28;;;;;;;7.59;100.00;99374.06;5971275;29;20074;-94
2023/10/25 04:22:43;;;;;;;4.45;4.22;;;;;;;7.55;100.00;99368.34;5972758;29;20541;-94
2023/10/25 04:25:45;;;;;;;4.20;4.03;;;;;;;7.50;100.00;99365.34;5957598;29;20121;-93
2023/10/25 04:28:47;;;;;;;3.42;3.33;;;;;;;7.46;100.00;99369.16;5957147;29;20566;-93
2023/10/25 04:31:49;;;;;;;3.63;3.42;;;;;;;7.44;100.00;99374.44;5957540;29;20047;-93
2023/10/25 04:34:52;;;;;;;4.05;3.72;;;;;;;7.41;100.00;99369.53;5957236;29;20106;-93
2023/10/25 04:37:55;;;;;;;3.92;3.80;;;;;;;7.38;100.00;99366.41;5956963;29;20051;-93
2023/10/25 04:40:57;;;;;;;4.28;4.18;;;;;;;7.34;100.00;99368.44;5945861;29;20054;-94
2023/10/25 04:43:59;;;;;;;3.35;3.25;;;;;;;7.33;100.00;99366.81;5955645;29;20043;-93
2023/10/25 04:47:02;;;;;;;3.97;3.88;;;;;;;7.29;100.00;99366.22;5956742;29;20518;-93
2023/10/25 04:50:04;;;;;;;4.15;3.85;;;;;;;7.30;100.00;99362.72;5972225;29;20043;-93
2023/10/25 04:53:06;;;;;;;4.32;4.13;;;;;;;7.27;100.00;99368.13;5960573;29;20057;-94
2023/10/25 04:56:08;;;;;;;5.05;4.75;;;;;;;7.26;100.00;99368.25;5975139;29;20039;-93
2023/10/25 04:59:10;;;;;;;3.85;3.75;;;;;;;7.20;100.00;99371.34;5961863;29;20039;-94
2023/10/25 05:02:13;;;;;;;5.13;4.93;;;;;;;7.19;100.00;99370.53;5960366;29;20042;-94
2023/10/25 05:05:15;;;;;;;3.33;3.22;;;;;;;7.18;100.00;99374.06;5960904;29;20051;-94
2023/10/25 05:08:17;;;;;;;4.15;4.05;;;;;;;7.16;100.00;99375.13;5960618;29;20520;-93
2023/10/25 05:11:27;;;;;;;4.15;4.03;;;;;;;7.11;100.00;99368.59;5974130;29;20058;-94
2023/10/25 05:14:29;;;;;;;4.40;4.25;;;;;;;7.08;100.00;99366.28;5973098;29;20199;-93
2023/10/25 05:17:32;;;;;;;3.58;3.42;;;;;;;7.05;100.00;99363.94;5960019;29;20505;-93
2023/10/25 05:20:34;;;;;;;4.60;4.40;;;;;;;7.01;100.00;99364.34;5961263;29;20038;-93
2023/10/25 05:23:37;;;;;;;4.07;3.88;;;;;;;7.00;100.00;99363.50;5961284;29;20156;-92
2023/10/25 05:26:46;;;;;;;3.90;3.80;;;;;;;6.95;100.00;99368.22;5959341;29;20134;-93
2023/10/25 05:29:48;;;;;;;4.43;4.18;;;;;;;6.93;100.00;99370.09;5947431;29;20497;-94
2023/10/25 05:32:53;;;;;;;4.43;4.20;;;;;;;6.93;100.00;99369.28;5957075;29;20501;-94
2023/10/25 05:35:55;;;;;;;4.05;3.85;;;;;;;6.93;100.00;99369.28;5960814;29;20042;-93
2023/10/25 05:39:01;;;;;;;4.55;4.32;;;;;;;6.91;100.00;99369.44;5958347;29;20472;-94
2023/10/25 05:42:04;;;;;;;4.85;4.45;;;;;;;6.85;100.00;99369.91;5957098;29;20129;-94
2023/10/25 05:45:07;;;;;;;4.72;4.53;;;;;;;6.93;100.00;99364.94;5973124;29;20039;-94
2023/10/25 05:48:15;;;;;;;4.57;4.38;;;;;;;6.88;100.00;99361.94;5958525;29;20047;-93
2023/10/25 05:51:18;;;;;;;4.55;4.38;;;;;;;6.89;100.00;99369.53;5970858;29;20167;-94
2023/10/25 05:54:21;;;;;;;4.47;4.32;;;;;;;6.85;100.00;99357.88;5957680;29;20330;-95
2023/10/25 05:57:24;;;;;;;4.05;3.95;;;;;;;6.78;100.00;99355.94;5955721;29;20868;-93
2023/10/25 06:00:27;;;;;;;4.40;4.22;;;;;;;6.78;100.00;99348.22;5949007;29;20261;-93
2023/10/25 06:03:29;;;;;;;3.97;3.78;;;;;;;6.77;100.00;99351.75;5946793;29;20519;-94
2023/10/25 06:06:35;;;;;;;4.25;4.07;;;;;;;6.77;100.00;99359.44;5952155;29;20043;-94
2023/10/25 06:09:40;;;;;;;3.65;3.45;;;;;;;6.73;100.00;99361.44;5949286;29;20086;-93
2023/10/25 06:12:42;;;;;;;4.57;4.38;;;;;;;6.73;100.00;99361.44;5952296;29;20050;-93
2023/10/25 06:15:45;;;;;;;3.65;3.55;;;;;;;6.70;100.00;99364.28;5952800;29;20054;-93
2023/10/25 06:18:47;;;;;;;5.15;4.78;;;;;;;6.75;100.00;99362.13;5954480;29;20161;-93
2023/10/25 06:21:53;;;;;;;3.83;3.72;;;;;;;6.72;100.00;99372.69;5958228;29;20054;-92
2023/10/25 06:24:55;;;;;;;3.78;3.47;;;;;;;6.72;100.00;99371.88;5958173;29;20069;-94
2023/10/25 06:27:59;;;;;;;3.40;3.30;;;;;;;6.71;100.00;99363.34;5959257;29;20047;-93
2023/10/25 06:31:11;;;;;;;4.00;3.90;;;;;;;6.71;100.00;99360.78;5954611;29;20039;-94
2023/10/25 06:34:14;;;;;;;3.85;3.75;;;;;;;6.75;100.00;99361.34;5959904;29;20043;-93
2023/10/25 06:37:16;;;;;;;4.40;4.20;;;;;;;6.80;100.00;99367.72;5968503;29;20062;-93
2023/10/25 06:40:19;;;;;;;4.30;3.90;;;;;;;6.86;100.00;99366.44;5957498;29;20565;-93
2023/10/25 06:43:22;;;;;;;4.10;4.00;;;;;;;6.85;100.00;99367.34;5954628;29;20050;-93
2023/10/25 06:46:24;;;;;;;3.70;3.60;;;;;;;6.88;100.00;99364.50;5953578;29;20139;-93
2023/10/25 06:49:27;;;;;;;4.20;4.10;;;;;;;6.88;100.00;99361.94;5952002;29;20462;-92
2023/10/25 06:52:29;;;;;;;4.78;4.55;;;;;;;6.92;100.00;99363.34;5952585;29;20047;-93
2023/10/25 06:55:33;;;;;;;5.05;4.75;;;;;;;6.93;100.00;99370.09;5956249;29;20050;-93
2023/10/25 06:58:35;;;;;;;4.22;4.03;;;;;;;6.93;100.00;99364.94;5948084;29;20443;-93
2023/10/25 07:01:43;;;;;;;5.15;4.85;;;;;;;6.96;100.00;99362.16;5956510;29;20457;-92
2023/10/25 07:04:49;;;;;;;4.65;4.35;;;;;;;6.97;100.00;99360.38;5951063;29;20084;-92
2023/10/25 07:07:56;;;;;;;4.50;4.30;;;;;;;7.00;100.00;99365.28;5953021;29;20183;-94
2023/10/25 07:10:59;;;;;;;4.47;4.28;;;;;;;6.98;100.00;99368.00;5949635;29;20855;-94
2023/10/25 07:14:02;;;;;;;3.97;3.75;;;;;;;7.01;100.00;99372.88;5969207;29;20075;-94
2023/10/25 07:17:04;;;;;;;4.40;4.13;;;;;;;7.01;100.00;99367.72;5968035;29;20375;-94
2023/10/25 07:20:10;;;;;;;4.22;4.13;;;;;;;7.03;100.00;99375.31;5954471;29;20046;-94
2023/10/25 07:23:12;;;;;;;4.10;4.00;;;;;;;7.07;100.00;99374.94;5950138;29;20051;-93
2023/10/25 07:26:14;;;;;;;4.30;4.10;;;;;;;7.07;100.00;99374.94;5956887;29;20421;-94
2023/10/25 07:29:16;;;;;;;3.67;3.58;;;;;;;7.08;100.00;99374.00;5947400;29;20118;-94
2023/10/25 07:32:18;;;;;;;3.88;3.78;;;;;;;7.15;100.00;99373.47;5950844;29;20158;-93
2023/10/25 07:35:21;;;;;;;4.68;4.47;;;;;;;7.20;100.00;99366.19;5963897;29;20045;-93
2023/10/25 07:38:23;;;;;;;4.32;4.13;;;;;;;7.23;100.00;99366.75;5971647;29;20050;-93
2023/10/25 07:41:26;;;;;;;3.58;3.47;;;;;;;7.31;100.00;99360.97;5948475;29;20046;-94
2023/10/25 07:44:28;;;;;;;4.63;4.43;;;;;;;7.37;100.00;99362.19;5956244;29;20051;-93
2023/10/25 07:47:30;;;;;;;3.72;3.63;;;;;;;7.43;100.00;99364.25;5970954;29;20043;-94
2023/10/25 07:50:34;;;;;;;4.40;4.20;;;;;;;7.47;100.00;99363.06;5955253;29;20426;-92
2023/10/25 07:53:36;;;;;;;4.60;4.35;;;;;;;7.53;100.00;99363.34;5953922;29;20086;-93
2023/10/25 07:56:38;;;;;;;4.57;4.32;;;;;;;7.58;100.00;99362.13;5955965;29;20042;-92
2023/10/25 07:59:44;;;;;;;4.32;4.13;;;;;;;7.66;100.00;99357.16;5963553;29;20055;-92
2023/10/25 08:02:46;;;;;;;3.97;3.88;;;;;;;7.72;100.00;99357.44;5948235;29;20494;-93
2023/10/25 08:05:48;;;;;;;4.15;3.95;;;;;;;7.79;100.00;99356.91;5955481;29;20108;-92
2023/10/25 08:08:50;;;;;;;4.07;3.97;;;;;;;7.82;100.00;99357.44;5966771;29;20122;-93
2023/10/25 08:11:53;;;;;;;4.38;4.28;;;;;;;7.85;100.00;99352.06;5956319;29;20047;-93
2023/10/25 08:14:55;;;;;;;4.93;4.72;;;;;;;7.92;100.00;99347.16;5956752;29;20494;-92
2023/10/25 08:17:57;;;;;;;4.70;4.57;;;;;;;7.97;100.00;99345.84;5970237;29;20569;-92
2023/10/25 08:20:59;;;;;;;4.60;4.40;;;;;;;8.03;100.00;99341.09;5955711;29;20070;-93
2023/10/25 08:24:05;;;;;;;4.03;3.92;;;;;;;8.14;100.00;99352.06;5964494;29;20584;-93
2023/10/25 08:27:07;;;;;;;5.30;5.00;;;;;;;8.22;100.00;99350.59;5961415;29;20050;-93
2023/10/25 08:30:09;;;;;;;4.95;4.75;;;;;;;8.27;100.00;99346.66;5958007;29;20591;-93
2023/10/25 08:33:12;;;;;;;4.75;4.47;;;;;;;8.33;100.00;99355.63;5957332;29;20047;-93
2023/10/25 08:36:14;;;;;;;6.53;6.22;;;;;;;8.37;100.00;99354.38;5972494;29;20061;-93
2023/10/25 08:39:21;;;;;;;4.35;4.25;;;;;;;8.39;100.00;99363.66;5960601;29;20051;-92
2023/10/25 08:42:23;;;;;;;4.93;4.63;;;;;;;8.38;100.00;99351.69;5967543;29;20450;-92
2023/10/25 08:45:26;;;;;;;5.93;4.43;;;;;;;8.36;100.00;99343.28;5958632;29;20496;-93
2023/10/25 08:48:29;;;;;;;4.13;4.03;;;;;;;8.35;100.00;99344.22;5975663;29;20054;-92
2023/10/25 08:51:34;;;;;;;5.05;4.68;;;;;;;8.31;100.00;99342.06;5970131;29;20126;-93
2023/10/25 08:54:36;;;;;;;4.38;4.18;;;;;;;8.31;100.00;99334.31;5959872;29;20052;-92
2023/10/25 08:57:38;;;;;;;5.28;5.00;;;;;;;8.37;100.00;99326.88;5960848;29;20528;-92
2023/10/25 09:00:40;;;;;;;5.15;4.95;;;;;;;8.39;100.00;99324.97;5957247;29;20051;-92
2023/10/25 09:03:51;;;;;;;5.93;4.93;;;;;;;8.42;100.00;99329.03;5971606;29;20055;-92
2023/10/25 09:06:53;;;;;;;4.95;4.65;;;;;;;8.51;100.00;99343.69;5960738;29;20626;-93
2023/10/25 09:09:56;;;;;;;4.00;3.70;;;;;;;8.70;100.00;99331.75;5973474;29;20589;-93
2023/10/25 09:12:58;;;;;;;4.68;4.38;;;;;;;8.99;100.00;99342.81;5957925;29;20428;-92
2023/10/25 09:16:16;;;;;;;5.63;5.05;;;;;;;9.21;100.00;99346.78;5954500;29;20046;-93
2023/10/25 09:19:20;;;;;;;4.13;4.03;;;;;;;9.35;100.00;99337.78;5959739;29;20049;-93
2023/10/25 09:22:31;;;;;;;4.40;4.25;;;;;;;9.63;100.00;99337.78;5958558;29;20498;-93
2023/10/25 09:25:34;;;;;;;5.65;5.35;;;;;;;9.60;100.00;99331.13;5958455;29;20536;-93
2023/10/25 09:28:36;;;;;;;5.30;5.10;;;;;;;9.49;100.00;99328.75;5958785;29;20047;-92
2023/10/25 09:31:39;;;;;;;5.20;4.90;;;;;;;9.40;100.00;99329.63;5956523;29;20043;-92
2023/10/25 09:34:41;;;;;;;5.25;4.97;;;;;;;9.27;100.00;99311.88;5963674;29;20043;-92
2023/10/25 09:37:43;;;;;;;5.55;5.00;;;;;;;9.19;100.00;99302.25;5952356;29;20654;-92
2023/10/25 09:40:47;;;;;;;4.65;4.45;;;;;;;9.10;100.00;99292.78;5954343;29;20515;-93
2023/10/25 09:44:09;;;;;;;4.03;3.92;;;;;;;9.10;100.00;99287.63;5971204;29;20475;-92
2023/10/25 09:47:11;;;;;;;4.45;4.35;;;;;;;9.09;100.00;99285.97;5946791;29;20043;-92
2023/10/25 09:50:25;;;;;;;4.00;3.90;;;;;;;9.10;100.00;99279.88;5972460;29;20572;-92
2023/10/25 09:53:38;;;;;;;4.40;4.20;;;;;;;9.11;100.00;99272.94;5946048;29;20039;-93
2023/10/25 09:56:43;;;;;;;3.75;3.65;;;;;;;9.11;100.00;99268.56;5943254;29;20510;-93
2023/10/25 09:59:46;;;;;;;3.72;3.63;;;;;;;9.15;100.00;99264.75;5968791;29;20595;-92
2023/10/25 10:03:02;;;;;;;4.28;3.97;;;;;;;9.24;100.00;99268.25;5952364;29;20497;-92
2023/10/25 10:06:18;;;;;;;5.03;4.82;;;;;;;9.35;100.00;99265.47;5969344;29;20119;-92
2023/10/25 10:09:47;;;;;;;4.18;3.97;;;;;;;9.50;100.00;99263.22;5954372;29;20055;-92
2023/10/25 10:12:51;;;;;;;4.47;4.27;;;;;;;9.58;100.00;99263.28;5952013;29;20058;-92
2023/10/25 10:16:09;;;;;;;3.38;3.28;;;;;;;9.68;100.00;99258.06;5954420;29;20138;-92
2023/10/25 10:19:11;;;;;;;4.68;4.47;;;;;;;9.71;100.00;99262.94;5951493;29;20047;-93
2023/10/25 10:22:16;;;;;;;4.38;4.22;;;;;;;9.74;100.00;99265.25;5957520;29;20095;-93
2023/10/25 10:25:45;;;;;;;4.75;4.60;;;;;;;9.82;100.00;99257.56;5950868;29;20608;-92
2023/10/25 10:28:49;;;;;;;4.10;3.90;;;;;;;9.95;100.00;99252.00;5965082;29;20049;-92
2023/10/25 10:32:01;;;;;;;4.63;4.43;;;;;;;10.03;100.00;99251.28;5954805;29;20038;-92
2023/10/25 10:35:04;;;;;;;4.45;4.35;;;;;;;10.16;100.00;99238.78;5970007;29;20058;-92
2023/10/25 10:38:06;;;;;;;3.67;3.58;;;;;;;10.33;100.00;99256.06;5958070;29;20042;-93
2023/10/25 10:41:09;;;;;;;4.22;4.03;;;;;;;10.63;100.00;99248.00;5971441;29;20077;-93
2023/10/25 10:44:11;;;;;;;4.47;4.28;;;;;;;10.89;100.00;99246.22;5955720;29;20050;-93
2023/10/25 10:47:19;;;;;;;3.97;3.88;;;;;;;11.01;100.00;99238.19;5962391;29;20051;-93
2023/10/25 10:50:23;;;;;;;3.67;3.58;;;;;;;11.12;100.00;99236.09;5970402;29;20159;-92
2023/10/25 10:53:25;;;;;;;4.22;4.03;;;;;;;11.15;100.00;99234.97;5955411;29;20065;-92
2023/10/25 10:56:27;;;;;;;3.33;3.22;;;;;;;11.18;100.00;99229.50;5953014;29;20049;-92
2023/10/25 10:59:30;;;;;;;4.20;4.00;;;;;;;11.22;100.00;99225.59;5947879;29;20525;-92
2023/10/25 11:02:32;;;;;;;4.28;4.07;;;;;;;11.23;100.00;99221.22;5946393;29;20118;-92
2023/10/25 11:05:36;;;;;;;4.03;3.92;;;;;;;11.29;100.00;99218.03;5951241;29;20497;-92
2023/10/25 11:08:39;;;;;;;3.45;3.35;;;;;;;11.36;100.00;99209.47;5952341;29;20051;-92
2023/10/25 11:11:41;;;;;;;3.75;3.63;;;;;;;11.40;100.00;99197.00;5970208;29;20051;-91
2023/10/25 11:14:45;;;;;;;6.03;5.82;;;;;;;11.46;100.00;99185.19;5954472;29;20051;-91
2023/10/25 11:17:47;;;;;;;3.80;3.70;;;;;;;11.68;100.00;99176.78;5955245;29;20051;-91
2023/10/25 11:20:49;;;;;;;4.60;4.40;;;;;;;11.87;100.00;99161.91;5950188;29;20063;-91
2023/10/25 11:23:51;;;;;;;3.42;3.33;;;;;;;12.09;100.00;99161.22;5952491;29;20047;-91
2023/10/25 11:26:53;;;;;;;4.03;3.83;;;;;;;12.41;100.00;99165.53;5952608;29;20061;-91
2023/10/25 11:29:56;;;;;;;3.50;3.40;;;;;;;12.54;100.00;99162.41;5947668;29;20069;-91
2023/10/25 11:32:58;;;;;;;3.60;3.50;;;;;;;12.56;100.00;99165.66;5948595;29;20058;-91
2023/10/25 11:36:01;;;;;;;3.97;3.67;;;;;;;12.47;100.00;99169.25;5955114;29;20466;-92
2023/10/25 11:39:07;;;;;;;3.35;3.25;;;;;;;12.48;100.00;99171.69;5955046;29;20050;-92
2023/10/25 11:42:09;;;;;;;3.97;3.88;;;;;;;12.48;100.00;99158.72;5950033;29;20051;-92
2023/10/25 11:45:12;;;;;;;3.75;3.65;;;;;;;12.48;100.00;99153.53;5958788;29;20053;-92
2023/10/25 11:48:14;;;;;;;3.40;3.30;;;;;;;12.57;100.00;99156.91;5955781;29;20050;-93
2023/10/25 11:51:20;;;;;;;3.65;3.55;;;;;;;12.56;100.00;99141.50;5968609;29;20076;-93
2023/10/25 11:54:22;;;;;;;3.70;3.60;;;;;;;12.52;100.00;99135.84;5963918;29;20071;-93
2023/10/25 11:57:39;;;;;;;3.80;3.70;;;;;;;12.48;100.00;99121.56;5953717;29;20469;-93
2023/10/25 12:00:41;;;;;;;4.88;4.68;;;;;;;12.37;100.00;99106.34;5952988;29;20055;-91
2023/10/25 12:03:46;;;;;;;3.28;3.17;;;;;;;12.29;100.00;99087.25;5955529;29;20051;-92
2023/10/25 12:06:48;;;;;;;3.42;3.33;;;;;;;12.23;100.00;99081.94;5950307;29;20087;-92
2023/10/25 12:09:51;;;;;;;3.63;3.53;;;;;;;12.27;100.00;99083.19;5954494;29;20129;-92
2023/10/25 12:12:53;;;;;;;3.70;3.50;;;;;;;12.29;100.00;99092.44;5954690;29;20058;-93
2023/10/25 12:15:55;;;;;;;3.28;3.17;;;;;;;12.39;100.00;99089.63;5964783;29;20038;-92
2023/10/25 12:18:58;;;;;;;4.18;4.07;;;;;;;12.42;100.00;99089.31;5954493;29;20102;-92
2023/10/25 12:21:59;;;;;;;4.32;4.03;;;;;;;12.45;100.00;99095.97;5955614;29;20414;-93
2023/10/25 12:25:02;;;;;;;3.47;3.38;;;;;;;12.42;100.00;99093.69;5954343;29;20063;-93
2023/10/25 12:28:04;;;;;;;4.20;4.00;;;;;;;12.40;100.00;99086.09;5965628;29;20054;-93
2023/10/25 12:31:06;;;;;;;2.88;2.78;;;;;;;12.42;100.00;99073.75;5962860;29;20051;-93
2023/10/25 12:34:08;;;;;;;3.33;3.22;;;;;;;12.44;100.00;99063.19;5952098;29;20410;-93
2023/10/25 12:37:11;;;;;;;2.92;2.83;;;;;;;12.40;100.00;99043.75;5968516;29;20173;-93
2023/10/25 12:40:13;;;;;;;3.10;3.00;;;;;;;12.43;100.00;99049.41;5967362;29;20082;-93
2023/10/25 12:43:15;;;;;;;3.17;3.08;;;;;;;12.47;100.00;99036.88;5953148;29;20057;-93
2023/10/25 12:46:18;;;;;;;5.40;3.88;;;;;;;12.42;100.00;99026.22;5965489;29;20042;-93
2023/10/25 12:49:20;;;;;;;3.15;3.05;;;;;;;12.42;100.00;99015.81;5955295;29;20083;-93
2023/10/25 12:52:22;;;;;;;3.28;3.17;;;;;;;12.40;100.00;99018.59;5970043;29;20631;-93
2023/10/25 12:55:24;;;;;;;4.15;3.75;;;;;;;12.42;100.00;99014.06;5953926;29;20406;-93
2023/10/25 12:58:26;;;;;;;3.63;3.53;;;;;;;12.37;100.00;98999.97;5948292;29;20059;-93
2023/10/25 13:01:28;;;;;;;3.33;3.17;;;;;;;12.47;100.00;99000.56;5968825;29;20092;-92
2023/10/25 13:04:32;;;;;;;3.22;3.13;;;;;;;12.49;100.00;98980.44;5954062;29;20130;-93
2023/10/25 13:07:34;;;;;;;8.30;4.55;;;;;;;12.54;100.00;98982.50;5951852;29;20055;-93
2023/10/25 13:10:36;;;;;;;3.45;3.35;;;;;;;12.52;100.00;98974.09;5957600;29;20062;-93
2023/10/25 13:13:38;;;;;;;3.15;3.05;;;;;;;12.55;100.00;98963.38;5970912;29;20379;-92
2023/10/25 13:16:40;;;;;;;3.30;3.20;;;;;;;12.56;100.00;98946.81;5956960;29;20039;-93
2023/10/25 13:19:43;;;;;;;3.65;3.55;;;;;;;12.60;100.00;98943.72;5959373;29;20050;-93
2023/10/25 13:22:45;;;;;;;3.10;3.00;;;;;;;12.58;100.00;98929.28;5972628;29;20058;-93
2023/10/25 13:25:47;;;;;;;3.05;2.95;;;;;;;12.53;100.00;98918.63;5958307;29;20049;-94
2023/10/25 13:28:50;;;;;;;3.20;3.10;;;;;;;12.36;100.00;98903.16;5971755;29;20039;-93
2023/10/25 13:31:52;;;;;;;3.35;3.25;;;;;;;12.34;100.00;98899.13;5959114;29;20058;-94
2023/10/25 13:34:55;;;;;;;2.90;2.80;;;;;;;12.20;100.00;98896.28;5955620;29;20051;-94
2023/10/25 13:37:57;;;;;;;3.10;3.00;;;;;;;12.11;100.00;98893.91;5958864;29;20054;-94
2023/10/25 13:40:59;;;;;;;3.10;3.00;;;;;;;12.05;100.00;98880.66;5956003;29;20043;-95
2023/10/25 13:44:02;;;;;;;3.83;3.00;;;;;;;12.02;100.00;98882.78;5958336;29;20133;-94
2023/10/25 13:47:04;;;;;;;3.20;3.03;;;;;;;12.00;100.00;98871.75;5955746;29;20117;-94
2023/10/25 13:50:07;;;;;;;2.88;2.78;;;;;;;11.94;100.00;98862.88;5952747;29;20042;-95
2023/10/25 13:53:10;;;;;;;3.13;3.03;;;;;;;11.97;100.00;98866.91;5955423;29;20042;-94
2023/10/25 13:56:19;;;;;;;3.30;3.20;;;;;;;11.94;100.00;98867.28;5954199;29;20046;-94
2023/10/25 13:59:21;;;;;;;3.40;3.30;;;;;;;11.92;100.00;98859.66;5954973;29;20069;-94
2023/10/25 14:02:24;;;;;;;4.38;4.18;;;;;;;11.89;100.00;98854.81;5955714;29;20077;-94
2023/10/25 14:05:26;;;;;;;4.38;4.15;;;;;;;11.82;100.00;98859.03;5957354;29;20118;-95
2023/10/25 14:08:27;;;;;;;3.88;3.67;;;;;;;11.77;100.00;98862.13;5955802;29;20573;-95
2023/10/25 14:11:31;;;;;;;3.40;3.30;;;;;;;11.66;100.00;98849.56;5954038;29;20487;-95
2023/10/25 14:14:33;;;;;;;3.88;3.78;;;;;;;11.65;100.00;98853.13;5955965;29;20046;-94
2023/10/25 14:17:35;;;;;;;3.25;3.15;;;;;;;11.55;100.00;98842.16;5970642;29;20054;-95
2023/10/25 14:20:39;;;;;;;3.28;3.10;;;;;;;11.47;100.00;98834.41;5950617;29;20051;-95